createdAt,value
2018-07-17T00:00:11.579Z,98101.53
2018-07-17T00:02:40.858Z,98100.30
2018-07-17T00:05:10.368Z,98099.21
2018-07-17T00:07:39.646Z,98096.55
2018-07-17T00:12:47.554Z,98103.13
2018-07-17T00:15:16.616Z,98108.34
2018-07-17T00:17:45.676Z,98114.70
2018-07-17T00:20:14.774Z,98110.27
2018-07-17T00:22:49.376Z,98098.53
2018-07-17T00:25:19.231Z,98096.81
2018-07-17T00:27:48.300Z,98103.51
2018-07-17T00:30:17.409Z,98103.11
2018-07-17T00:32:46.480Z,98101.38
2018-07-17T00:35:15.607Z,98101.59
2018-07-17T00:37:44.684Z,98101.89
2018-07-17T00:40:13.809Z,98098.38
2018-07-17T00:42:42.968Z,98094.30
2018-07-17T00:45:11.998Z,98100.05
2018-07-17T00:47:41.177Z,98103.91
2018-07-17T00:50:10.276Z,98101.76
2018-07-17T00:52:39.480Z,98100.51
2018-07-17T00:55:08.684Z,98108.55
2018-07-17T00:57:37.966Z,98102.59
2018-07-17T01:00:07.118Z,98100.73
2018-07-17T01:02:41.419Z,98099.20
2018-07-17T01:05:15.796Z,98103.26
2018-07-17T01:07:50.112Z,98107.00
2018-07-17T01:10:24.443Z,98116.98
2018-07-17T01:12:52.773Z,98110.64
2018-07-17T01:15:27.219Z,98112.01
2018-07-17T01:17:56.307Z,98105.87
2018-07-17T01:20:25.979Z,98103.50
2018-07-17T01:22:55.132Z,98105.62
2018-07-17T01:25:24.225Z,98111.58
2018-07-17T01:27:53.555Z,98110.50
2018-07-17T01:30:22.745Z,98105.91
2018-07-17T01:32:51.797Z,98106.36
2018-07-17T01:35:20.999Z,98101.25
2018-07-17T01:37:50.466Z,98102.27
2018-07-17T01:40:19.736Z,98101.88
2018-07-17T01:42:48.921Z,98102.51
2018-07-17T01:45:18.140Z,98103.02
2018-07-17T01:47:47.293Z,98102.56
2018-07-17T01:50:16.396Z,98097.61
2018-07-17T01:52:45.512Z,98100.73
2018-07-17T01:55:15.084Z,98105.59
2018-07-17T01:57:44.105Z,98106.80
2018-07-17T02:00:13.156Z,98104.02
2018-07-17T02:02:42.196Z,98104.12
2018-07-17T02:05:11.258Z,98101.34
2018-07-17T02:07:40.328Z,98104.88
2018-07-17T02:10:09.453Z,98098.94
2018-07-17T02:12:38.563Z,98099.05
2018-07-17T02:15:07.764Z,98092.49
2018-07-17T02:17:36.896Z,98095.52
2018-07-17T02:20:06.326Z,98096.23
2018-07-17T02:22:35.408Z,98102.07
2018-07-17T02:25:04.482Z,98095.42
2018-07-17T02:27:33.562Z,98094.69
2018-07-17T02:30:02.572Z,98101.45
2018-07-17T02:32:31.853Z,98101.25
2018-07-17T02:35:00.925Z,98104.42
2018-07-17T02:37:30.024Z,98099.15
2018-07-17T02:39:59.092Z,98097.19
2018-07-17T02:42:28.305Z,98091.98
2018-07-17T02:44:57.381Z,98091.53
2018-07-17T02:47:26.517Z,98091.53
2018-07-17T02:49:55.780Z,98096.13
2018-07-17T02:52:24.840Z,98097.88
2018-07-17T02:54:54.089Z,98031.69
2018-07-17T02:57:23.172Z,98092.38
2018-07-17T02:59:52.285Z,98095.67
2018-07-17T03:02:21.362Z,98098.99
2018-07-17T03:04:50.493Z,98096.28
2018-07-17T03:07:19.832Z,98098.94
2018-07-17T03:09:48.971Z,98092.02
2018-07-17T03:12:18.036Z,98092.17
2018-07-17T03:14:47.160Z,98096.52
2018-07-17T03:17:16.664Z,98105.77
2018-07-17T03:19:45.752Z,98099.94
2018-07-17T03:22:14.829Z,98093.29
2018-07-17T03:24:44.069Z,98105.59
2018-07-17T03:27:13.027Z,98098.84
2018-07-17T03:29:42.145Z,98092.84
2018-07-17T03:32:11.205Z,98092.35
2018-07-17T03:34:40.261Z,98099.51
2018-07-17T03:37:09.405Z,98099.94
2018-07-17T03:39:38.519Z,98107.09
2018-07-17T03:42:07.740Z,98114.20
2018-07-17T03:44:36.824Z,98109.03
2018-07-17T03:47:06.091Z,98109.03
2018-07-17T03:49:35.141Z,98110.59
2018-07-17T03:52:04.218Z,98111.91
2018-07-17T03:54:33.289Z,98062.05
2018-07-17T03:57:02.369Z,98124.20
2018-07-17T03:59:31.480Z,98126.95
2018-07-17T04:02:00.546Z,98132.27
2018-07-17T04:04:29.676Z,98131.97
2018-07-17T04:06:58.952Z,98128.56
2018-07-17T04:09:28.090Z,98122.62
2018-07-17T04:11:57.164Z,98115.12
2018-07-17T04:14:26.237Z,98114.68
2018-07-17T04:16:56.250Z,98122.72
2018-07-17T04:19:26.437Z,98116.22
2018-07-17T04:21:55.577Z,97968.88
2018-07-17T04:24:24.989Z,98120.70
2018-07-17T04:26:54.717Z,98123.69
2018-07-17T04:29:23.861Z,98121.92
2018-07-17T04:31:53.060Z,98126.09
2018-07-17T04:34:22.064Z,98129.83
2018-07-17T04:36:51.304Z,98130.91
2018-07-17T04:39:20.364Z,98135.36
2018-07-17T04:41:49.488Z,98131.50
2018-07-17T04:44:18.561Z,98142.39
2018-07-17T04:46:47.672Z,98140.48
2018-07-17T04:49:16.696Z,98134.86
2018-07-17T04:51:45.858Z,98132.91
2018-07-17T04:54:14.929Z,98133.76
2018-07-17T04:56:44.057Z,98142.33
2018-07-17T04:59:13.164Z,98139.34
2018-07-17T05:01:42.357Z,98143.69
2018-07-17T05:04:11.544Z,98141.22
2018-07-17T05:06:40.626Z,98147.33
2018-07-17T05:09:10.457Z,98146.55
2018-07-17T05:11:39.529Z,98145.03
2018-07-17T05:14:08.628Z,98152.41
2018-07-17T05:16:37.817Z,98154.45
2018-07-17T05:19:06.896Z,98153.92
2018-07-17T05:21:36.148Z,98155.13
2018-07-17T05:24:05.286Z,98154.13
2018-07-17T05:26:34.328Z,98153.44
2018-07-17T05:29:03.483Z,98157.59
2018-07-17T05:31:32.493Z,98152.48
2018-07-17T05:34:01.696Z,98153.40
2018-07-17T05:36:30.803Z,98156.22
2018-07-17T05:38:59.852Z,98154.22
2018-07-17T05:41:29.262Z,98158.28
2018-07-17T05:43:58.340Z,98154.90
2018-07-17T05:46:27.538Z,98157.02
2018-07-17T05:48:56.948Z,98158.33
2018-07-17T05:51:25.985Z,98155.80
2018-07-17T05:53:55.054Z,98156.77
2018-07-17T05:56:24.164Z,98153.00
2018-07-17T05:58:53.160Z,98154.38
2018-07-17T06:01:22.238Z,98161.21
2018-07-17T06:03:51.359Z,98155.66
2018-07-17T06:06:20.424Z,98164.30
2018-07-17T06:08:49.464Z,98162.70
2018-07-17T06:11:18.540Z,98165.14
2018-07-17T06:13:47.590Z,98155.50
2018-07-17T06:16:16.733Z,98163.23
2018-07-17T06:18:46.049Z,98163.39
2018-07-17T06:21:15.287Z,98160.36
2018-07-17T06:23:44.544Z,98155.14
2018-07-17T06:26:13.804Z,98161.08
2018-07-17T06:28:42.876Z,98162.88
2018-07-17T06:31:11.934Z,98151.73
2018-07-17T06:33:41.073Z,98153.50
2018-07-17T06:36:11.232Z,98155.00
2018-07-17T06:38:40.318Z,98150.50
2018-07-17T06:41:09.363Z,98154.88
2018-07-17T06:43:38.447Z,98152.10
2018-07-17T06:46:07.464Z,98153.36
2018-07-17T06:48:36.516Z,98152.42
2018-07-17T06:51:05.668Z,98149.52
2018-07-17T06:53:35.142Z,98150.03
2018-07-17T06:56:04.350Z,98156.55
2018-07-17T06:58:33.473Z,98151.20
2018-07-17T07:01:02.537Z,98157.28
2018-07-17T07:03:31.749Z,98154.74
2018-07-17T07:06:00.841Z,98155.38
2018-07-17T07:08:30.994Z,98161.45
2018-07-17T07:11:00.026Z,98149.76
2018-07-17T07:13:29.168Z,98139.61
2018-07-17T07:15:58.261Z,98146.67
2018-07-17T07:18:27.319Z,98140.19
2018-07-17T07:20:56.493Z,98139.08
2018-07-17T07:23:25.662Z,98137.00
2018-07-17T07:25:54.874Z,98131.94
2018-07-17T07:28:23.962Z,98133.00
2018-07-17T07:30:53.075Z,98130.60
2018-07-17T07:33:22.520Z,98133.54
2018-07-17T07:35:51.626Z,98128.43
2018-07-17T07:38:20.699Z,98131.36
2018-07-17T07:40:49.825Z,98134.01
2018-07-17T07:43:18.888Z,98127.81
2018-07-17T07:45:48.068Z,98126.91
2018-07-17T07:48:17.208Z,98128.20
2018-07-17T07:50:46.289Z,98121.32
2018-07-17T07:53:15.412Z,98129.83
2018-07-17T07:55:44.574Z,98128.75
2018-07-17T07:58:13.746Z,98131.42
2018-07-17T08:00:42.895Z,98131.05
2018-07-17T08:03:12.089Z,98128.05
2018-07-17T08:05:41.193Z,98121.41
2018-07-17T08:08:10.432Z,98119.22
2018-07-17T08:10:39.550Z,98123.34
2018-07-17T08:13:08.794Z,98121.73
2018-07-17T08:15:37.985Z,98121.31
2018-07-17T08:18:07.238Z,98117.42
2018-07-17T08:20:36.401Z,98121.80
2018-07-17T08:23:05.588Z,98112.06
2018-07-17T08:25:35.048Z,98118.31
2018-07-17T08:28:04.610Z,98116.11
2018-07-17T08:30:34.062Z,98118.34
2018-07-17T08:33:04.682Z,98120.52
2018-07-17T08:35:33.998Z,98125.11
2018-07-17T08:38:03.489Z,98123.50
2018-07-17T08:40:32.772Z,98123.66
2018-07-17T08:43:02.094Z,98118.48
2018-07-17T08:45:31.542Z,98126.38
2018-07-17T08:48:01.012Z,98131.72
2018-07-17T08:50:30.400Z,98130.45
2018-07-17T08:53:00.008Z,98124.83
2018-07-17T08:55:29.611Z,98127.83
2018-07-17T08:57:58.912Z,98127.41
2018-07-17T09:00:28.538Z,98124.27
2018-07-17T09:02:57.899Z,98127.77
2018-07-17T09:05:27.417Z,98126.69
2018-07-17T09:07:57.550Z,98126.53
2018-07-17T09:10:27.049Z,98123.95
2018-07-17T09:12:56.456Z,98130.44
2018-07-17T09:15:25.770Z,98124.08
2018-07-17T09:17:55.154Z,98117.18
2018-07-17T09:20:24.551Z,98127.59
2018-07-17T09:22:53.853Z,98122.00
2018-07-17T09:25:23.117Z,98123.84
2018-07-17T09:27:52.517Z,98125.47
2018-07-17T09:30:21.865Z,98127.00
2018-07-17T09:32:51.361Z,98120.41
2018-07-17T09:35:20.865Z,98130.16
2018-07-17T09:37:50.366Z,98126.27
2018-07-17T09:40:19.771Z,98127.83
2018-07-17T09:42:49.145Z,98126.66
2018-07-17T09:45:18.330Z,98119.71
2018-07-17T09:47:47.497Z,98113.61
2018-07-17T09:50:16.969Z,98118.16
2018-07-17T09:52:46.419Z,98122.56
2018-07-17T09:55:15.599Z,98126.41
2018-07-17T09:57:44.953Z,98122.20
2018-07-17T10:00:19.696Z,98119.01
2018-07-17T10:02:48.935Z,98121.62
2018-07-17T10:05:18.498Z,98120.81
2018-07-17T10:07:47.843Z,98125.83
2018-07-17T10:10:17.192Z,98119.37
2018-07-17T10:12:46.486Z,98124.03
2018-07-17T10:15:16.108Z,98117.92
2018-07-17T10:17:45.390Z,98117.95
2018-07-17T10:20:14.602Z,98117.61
2018-07-17T10:22:43.903Z,98109.21
2018-07-17T10:25:13.241Z,98111.66
2018-07-17T10:27:42.553Z,98112.91
2018-07-17T10:30:11.903Z,98114.12
2018-07-17T10:32:41.154Z,98119.97
2018-07-17T10:35:10.375Z,98122.89
2018-07-17T10:37:39.635Z,98114.45
2018-07-17T10:40:09.001Z,98114.42
2018-07-17T10:42:38.291Z,98120.73
2018-07-17T10:45:08.003Z,98116.41
2018-07-17T10:47:37.363Z,98117.94
2018-07-17T10:50:06.608Z,98115.11
2018-07-17T10:52:35.743Z,98112.48
2018-07-17T10:55:05.397Z,98114.50
2018-07-17T10:57:34.713Z,98108.55
2018-07-17T11:00:04.016Z,98107.55
2018-07-17T11:02:33.340Z,98098.70
2018-07-17T11:05:02.614Z,98106.58
2018-07-17T11:07:31.868Z,98100.28
2018-07-17T11:10:01.111Z,98093.69
2018-07-17T11:12:30.305Z,98091.52
2018-07-17T11:14:59.603Z,98098.20
2018-07-17T11:17:28.886Z,98085.75
2018-07-17T11:19:58.094Z,98089.38
2018-07-17T11:22:27.403Z,98081.86
2018-07-17T11:24:56.636Z,98082.02
2018-07-17T11:27:25.889Z,98083.40
2018-07-17T11:29:55.221Z,98085.73
2018-07-17T11:32:24.473Z,98079.93
2018-07-17T11:34:53.741Z,98073.28
2018-07-17T11:37:23.099Z,98075.27
2018-07-17T11:39:52.634Z,98069.05
2018-07-17T11:42:22.394Z,98064.63
2018-07-17T11:44:52.025Z,98064.31
2018-07-17T11:47:21.478Z,98069.82
2018-07-17T11:49:51.139Z,98068.78
2018-07-17T11:52:20.730Z,98062.98
2018-07-17T11:54:50.044Z,98049.22
2018-07-17T11:57:19.558Z,98059.09
2018-07-17T11:59:49.094Z,98059.88
2018-07-17T12:02:18.581Z,98054.07
2018-07-17T12:04:48.165Z,98053.66
2018-07-17T12:07:17.639Z,98053.27
2018-07-17T12:09:47.070Z,98047.88
2018-07-17T12:12:17.001Z,98042.25
2018-07-17T12:14:46.389Z,98042.25
2018-07-17T12:17:15.891Z,98043.29
2018-07-17T12:19:45.295Z,98049.00
2018-07-17T12:22:14.699Z,98044.14
2018-07-17T12:24:44.302Z,98048.39
2018-07-17T12:27:13.833Z,98037.70
2018-07-17T12:29:43.168Z,98044.73
2018-07-17T12:32:12.632Z,98041.69
2018-07-17T12:34:41.907Z,98042.84
2018-07-17T12:37:11.516Z,98040.52
2018-07-17T12:39:40.816Z,98032.44
2018-07-17T12:42:10.104Z,98034.98
2018-07-17T12:47:14.605Z,98038.30
2018-07-17T12:49:43.950Z,98040.08
2018-07-17T12:52:13.164Z,98032.67
2018-07-17T12:54:42.350Z,98027.19
2018-07-17T12:57:11.473Z,98030.93
2018-07-17T12:59:40.520Z,98034.47
2018-07-17T13:02:09.933Z,98027.40
2018-07-17T13:04:39.440Z,98028.72
2018-07-17T13:07:08.997Z,98037.23
2018-07-17T13:09:38.296Z,98024.43
2018-07-17T13:12:07.952Z,98018.45
2018-07-17T13:14:37.560Z,98026.43
2018-07-17T13:17:07.468Z,98027.16
2018-07-17T13:19:36.872Z,98027.93
2018-07-17T13:22:06.284Z,98024.81
2018-07-17T13:24:35.582Z,98036.14
2018-07-17T13:27:05.043Z,98025.19
2018-07-17T13:29:34.394Z,98027.16
2018-07-17T13:32:03.931Z,98027.67
2018-07-17T13:34:33.185Z,98031.38
2018-07-17T13:37:02.590Z,98033.97
2018-07-17T13:39:31.727Z,98020.94
2018-07-17T13:42:01.089Z,98028.28
2018-07-17T13:44:30.569Z,98024.09
2018-07-17T13:46:59.787Z,98011.84
2018-07-17T13:49:28.982Z,98010.32
2018-07-17T13:51:58.388Z,98011.13
2018-07-17T13:54:27.667Z,98023.59
2018-07-17T13:56:56.907Z,98012.86
2018-07-17T13:59:26.271Z,98020.77
2018-07-17T14:01:55.716Z,98022.73
2018-07-17T14:04:25.044Z,98012.09
2018-07-17T14:06:54.535Z,98026.28
2018-07-17T14:09:23.735Z,98023.14
2018-07-17T14:11:53.398Z,98023.29
2018-07-17T14:14:23.009Z,98014.89
2018-07-17T14:16:52.505Z,98019.61
2018-07-17T14:19:22.010Z,98014.42
2018-07-17T14:21:51.616Z,98023.08
2018-07-17T14:24:21.318Z,98009.33
2018-07-17T14:26:50.700Z,98017.13
2018-07-17T14:29:20.473Z,98016.52
2018-07-17T14:31:49.929Z,98013.79
2018-07-17T14:34:19.222Z,98018.36
2018-07-17T14:36:48.671Z,98013.01
2018-07-17T14:39:17.933Z,98016.14
2018-07-17T14:41:47.339Z,98016.83
2018-07-17T14:44:16.644Z,98027.00
2018-07-17T14:46:45.912Z,98023.25
2018-07-17T14:49:21.014Z,98014.94
2018-07-17T14:51:50.337Z,98016.38
2018-07-17T14:54:19.610Z,98012.64
2018-07-17T14:56:49.073Z,98013.88
2018-07-17T14:59:18.389Z,98011.35
2018-07-17T15:01:47.689Z,98017.23
2018-07-17T15:04:17.082Z,98005.81
2018-07-17T15:06:46.433Z,98010.38
2018-07-17T15:09:15.698Z,98008.02
2018-07-17T15:11:45.057Z,98008.45
2018-07-17T15:14:14.299Z,98009.31
2018-07-17T15:16:43.601Z,98016.55
2018-07-17T15:19:12.955Z,98011.29
2018-07-17T15:21:42.317Z,98007.40
2018-07-17T15:24:11.552Z,98007.80
2018-07-17T15:26:40.886Z,98010.23
2018-07-17T15:29:10.167Z,98008.19
2018-07-17T15:31:39.406Z,98012.11
2018-07-17T15:34:08.731Z,98009.06
2018-07-17T15:36:37.996Z,98012.13
2018-07-17T15:39:09.640Z,98009.58
2018-07-17T15:41:39.451Z,98006.66
2018-07-17T15:44:08.932Z,98013.34
2018-07-17T15:46:38.229Z,98012.56
2018-07-17T15:49:07.637Z,97975.55
2018-07-17T15:51:36.774Z,98007.57
2018-07-17T15:54:06.247Z,98006.71
2018-07-17T15:56:35.482Z,98009.23
2018-07-17T15:59:04.881Z,98010.47
2018-07-17T16:01:34.057Z,98013.89
2018-07-17T16:04:03.352Z,98012.56
2018-07-17T16:06:32.582Z,98013.14
2018-07-17T16:09:01.926Z,98016.63
2018-07-17T16:11:31.077Z,98019.19
2018-07-17T16:14:00.618Z,98029.81
2018-07-17T16:16:29.582Z,98024.39
2018-07-17T16:18:58.845Z,98025.09
2018-07-17T16:21:28.165Z,98029.31
2018-07-17T16:23:57.543Z,98032.66
2018-07-17T16:26:26.849Z,98029.75
2018-07-17T16:28:56.052Z,98028.44
2018-07-17T16:31:25.341Z,98028.44
2018-07-17T16:33:54.639Z,98026.63
2018-07-17T16:36:23.947Z,98024.22
2018-07-17T16:38:53.752Z,98028.55
2018-07-17T16:41:23.180Z,98020.05
2018-07-17T16:43:52.641Z,98024.63
2018-07-17T16:46:21.941Z,98016.45
2018-07-17T16:48:51.768Z,98020.91
2018-07-17T16:51:21.066Z,98024.12
2018-07-17T16:53:50.457Z,98025.10
2018-07-17T16:56:19.669Z,98018.19
2018-07-17T16:58:48.866Z,98029.81
2018-07-17T17:01:18.293Z,98017.97
2018-07-17T17:03:47.546Z,98026.55
2018-07-17T17:06:16.764Z,98024.74
2018-07-17T17:08:46.073Z,98028.70
2018-07-17T17:11:15.367Z,98028.88
2018-07-17T17:13:44.750Z,98035.16
2018-07-17T17:16:13.964Z,98026.71
2018-07-17T17:18:43.155Z,98035.24
2018-07-17T17:21:12.360Z,98031.77
2018-07-17T17:23:41.761Z,98023.32
2018-07-17T17:26:11.062Z,98024.04
2018-07-17T17:28:40.257Z,98027.82
2018-07-17T17:31:09.476Z,98031.77
2018-07-17T17:33:38.697Z,98031.73
2018-07-17T17:36:08.125Z,98035.36
2018-07-17T17:38:37.357Z,98038.62
2018-07-17T17:41:06.859Z,98031.04
2018-07-17T17:43:36.124Z,98035.48
2018-07-17T17:46:05.432Z,98039.54
2018-07-17T17:48:34.885Z,98034.73
2018-07-17T17:51:04.291Z,98036.58
2018-07-17T17:53:33.504Z,98036.84
2018-07-17T17:56:02.733Z,98031.84
2018-07-17T17:58:33.083Z,98037.45
2018-07-17T18:01:02.388Z,98039.86
2018-07-17T18:03:31.625Z,98033.13
2018-07-17T18:06:00.979Z,98043.36
2018-07-17T18:08:30.178Z,98039.56
2018-07-17T18:10:59.347Z,98046.63
2018-07-17T18:13:28.636Z,98053.60
2018-07-17T18:15:57.849Z,98051.35
2018-07-17T18:18:27.036Z,98050.30
2018-07-17T18:20:56.420Z,98061.28
2018-07-17T18:23:25.578Z,98063.28
2018-07-17T18:25:55.072Z,98062.95
2018-07-17T18:28:24.405Z,98072.64
2018-07-17T18:30:53.773Z,98075.79
2018-07-17T18:33:23.071Z,98071.73
2018-07-17T18:35:52.968Z,98077.89
2018-07-17T18:38:22.217Z,98077.95
2018-07-17T18:40:51.538Z,98087.72
2018-07-17T18:43:20.720Z,98083.66
2018-07-17T18:45:49.893Z,98091.70
2018-07-17T18:48:19.090Z,98084.20
2018-07-17T18:50:48.445Z,98107.11
2018-07-17T18:53:17.618Z,98097.30
2018-07-17T18:55:46.785Z,98098.44
2018-07-17T18:58:15.966Z,98101.93
2018-07-17T19:00:45.266Z,98105.08
2018-07-17T19:03:14.462Z,98105.76
2018-07-17T19:05:43.677Z,98109.84
2018-07-17T19:08:12.998Z,98116.76
2018-07-17T19:10:42.362Z,98119.11
2018-07-17T19:13:11.605Z,98117.47
2018-07-17T19:15:41.065Z,98126.96
2018-07-17T19:18:10.304Z,98126.42
2018-07-17T19:20:39.562Z,98133.28
2018-07-17T19:23:08.793Z,98133.04
2018-07-17T19:25:38.315Z,98132.91
2018-07-17T19:28:07.500Z,98142.83
2018-07-17T19:30:36.758Z,98141.23
2018-07-17T19:33:05.957Z,98144.25
2018-07-17T19:35:35.304Z,98148.93
2018-07-17T19:38:04.828Z,98147.95
2018-07-17T19:40:34.037Z,98152.27
2018-07-17T19:43:03.569Z,98159.95
2018-07-17T19:45:33.124Z,98164.17
2018-07-17T19:48:02.345Z,98167.17
2018-07-17T19:50:31.522Z,98167.58
2018-07-17T19:53:00.749Z,98115.98
2018-07-17T19:55:30.064Z,98163.45
2018-07-17T19:57:59.289Z,98168.12
2018-07-17T20:00:28.489Z,98165.17
2018-07-17T20:02:57.729Z,98171.68
2018-07-17T20:05:27.109Z,98173.08
2018-07-17T20:07:56.474Z,98175.80
2018-07-17T20:10:25.708Z,98173.16
2018-07-17T20:12:55.136Z,98174.53
2018-07-17T20:15:24.384Z,98175.79
2018-07-17T20:17:53.636Z,98169.47
2018-07-17T20:20:22.846Z,98173.27
2018-07-17T20:22:52.080Z,98173.52
2018-07-17T20:25:21.307Z,98166.83
2018-07-17T20:27:50.854Z,98175.97
2018-07-17T20:30:20.087Z,98173.86
2018-07-17T20:32:49.364Z,98174.66
2018-07-17T20:35:18.697Z,98167.94
2018-07-17T20:37:47.968Z,98172.27
2018-07-17T20:40:17.171Z,98176.30
2018-07-17T20:42:46.478Z,98178.97
2018-07-17T20:45:15.752Z,98184.89
2018-07-17T20:47:45.025Z,98181.67
2018-07-17T20:50:15.316Z,98188.38
2018-07-17T20:52:44.875Z,98190.81
2018-07-17T20:55:14.105Z,98192.42
2018-07-17T20:57:43.348Z,98185.60
2018-07-17T21:00:12.605Z,98188.82
2018-07-17T21:02:42.036Z,98190.72
2018-07-17T21:05:11.374Z,98189.94
2018-07-17T21:07:40.662Z,98189.08
2018-07-17T21:10:09.976Z,98186.36
2018-07-17T21:12:39.193Z,98188.82
2018-07-17T21:15:08.517Z,98191.53
2018-07-17T21:17:37.797Z,98187.17
2018-07-17T21:20:07.180Z,98193.49
2018-07-17T21:22:36.448Z,98194.95
2018-07-17T21:25:06.033Z,98206.20
2018-07-17T21:27:35.289Z,98204.92
2018-07-17T21:30:05.680Z,98205.75
2018-07-17T21:32:34.984Z,98206.22
2018-07-17T21:35:04.225Z,98216.36
2018-07-17T21:37:33.558Z,98212.09
2018-07-17T21:40:02.857Z,98216.17
2018-07-17T21:42:32.037Z,98219.48
2018-07-17T21:45:01.209Z,98217.62
2018-07-17T21:47:30.545Z,98221.59
2018-07-17T21:50:00.661Z,98225.47
2018-07-17T21:52:29.910Z,98225.63
2018-07-17T21:54:59.149Z,98223.84
2018-07-17T21:57:28.388Z,98220.91
2018-07-17T21:59:58.578Z,98223.59
2018-07-17T22:02:28.125Z,98226.05
2018-07-17T22:04:57.417Z,98231.12
2018-07-17T22:07:26.572Z,98232.47
2018-07-17T22:09:55.810Z,98235.92
2018-07-17T22:12:25.185Z,98231.53
2018-07-17T22:14:54.440Z,98235.16
2018-07-17T22:17:23.679Z,98233.80
2018-07-17T22:19:52.920Z,98238.36
2018-07-17T22:22:22.416Z,98242.22
2018-07-17T22:24:51.730Z,98233.16
2018-07-17T22:27:20.981Z,98234.38
2018-07-17T22:29:50.229Z,98242.78
2018-07-17T22:32:19.532Z,98242.55
2018-07-17T22:34:48.824Z,98252.59
2018-07-17T22:37:18.078Z,98244.61
2018-07-17T22:39:47.324Z,98248.04
2018-07-17T22:42:16.464Z,98258.59
2018-07-17T22:44:45.793Z,98258.02
2018-07-17T22:47:15.097Z,98262.45
2018-07-17T22:49:44.523Z,98257.02
2018-07-17T22:52:13.937Z,98255.41
2018-07-17T22:54:43.530Z,98253.06
2018-07-17T22:57:12.664Z,98254.33
2018-07-17T22:59:41.957Z,98254.63
2018-07-17T23:02:11.179Z,98253.58
2018-07-17T23:04:40.396Z,98267.23
2018-07-17T23:07:09.549Z,98263.97
2018-07-17T23:09:38.797Z,98268.75
2018-07-17T23:12:08.482Z,98268.75
2018-07-17T23:14:37.721Z,98268.53
2018-07-17T23:17:06.961Z,98277.50
2018-07-17T23:19:36.292Z,98274.33
2018-07-17T23:22:05.520Z,98271.14
2018-07-17T23:24:34.792Z,98274.22
2018-07-17T23:27:04.016Z,98280.14
2018-07-17T23:29:33.221Z,98278.97
2018-07-17T23:34:30.605Z,98289.76
2018-07-17T23:36:59.817Z,98286.72
2018-07-17T23:39:29.158Z,98288.38
2018-07-17T23:41:58.462Z,98284.53
2018-07-17T23:44:27.783Z,98283.34
2018-07-17T23:46:57.014Z,98293.44
2018-07-17T23:49:31.623Z,98293.16
2018-07-17T23:52:00.846Z,98295.59
2018-07-17T23:54:30.205Z,98294.55
2018-07-17T23:56:59.360Z,98297.24
2018-07-17T23:59:28.809Z,98298.16
